createdAt,value
2016-08-11T05:55:39.083Z,1.1
2016-08-11T05:56:39.452Z,0.1
2016-08-11T05:57:40.129Z,0.0
2016-08-11T05:58:40.524Z,0.5
2016-08-11T05:59:41.193Z,0.3
2016-08-11T06:00:41.572Z,0.0
2016-08-11T06:01:42.255Z,0.7
2016-08-11T06:02:42.705Z,1.0
2016-08-11T06:03:43.210Z,0.6
2016-08-11T06:04:43.749Z,0.6
2016-08-11T06:05:44.256Z,0.1
2016-08-11T06:06:44.768Z,0.6
2016-08-11T06:07:45.340Z,0.2
2016-08-11T06:08:45.860Z,0.4
2016-08-11T06:09:46.381Z,0.2
2016-08-11T06:10:47.052Z,0.2
2016-08-11T06:11:47.567Z,0.3
2016-08-11T06:12:47.953Z,0.0
2016-08-11T06:13:48.492Z,0.0
2016-08-11T06:14:49.153Z,0.2
2016-08-11T06:15:49.658Z,0.0
2016-08-11T06:16:50.038Z,0.0
2016-08-11T06:17:50.609Z,0.0
2016-08-11T06:18:51.119Z,0.0
2016-08-11T06:19:51.627Z,0.0
2016-08-11T06:20:52.185Z,0.1
2016-08-11T06:21:52.721Z,0.1
2016-08-11T06:22:53.234Z,0.0
2016-08-11T06:23:53.898Z,0.0
2016-08-11T06:24:54.457Z,0.0
2016-08-11T06:25:54.822Z,0.3
2016-08-11T06:26:55.485Z,0.3
2016-08-11T06:27:55.892Z,0.3
2016-08-11T06:28:56.542Z,0.5
2016-08-11T06:29:57.072Z,0.4
2016-08-11T06:30:57.460Z,0.0
2016-08-11T06:31:57.974Z,0.1
2016-08-11T06:32:58.507Z,0.0
2016-08-11T06:33:59.058Z,0.2
2016-08-11T06:34:59.580Z,0.0
2016-08-11T06:36:00.083Z,0.0
2016-08-11T06:37:00.624Z,0.0
2016-08-11T06:38:01.155Z,0.5
2016-08-11T06:39:01.700Z,0.0
2016-08-11T06:40:02.199Z,0.3
2016-08-11T06:41:02.878Z,0.7
2016-08-11T06:42:03.403Z,0.2
2016-08-11T06:43:03.935Z,0.0
2016-08-11T06:44:04.458Z,0.2
2016-08-11T06:45:04.998Z,0.0
2016-08-11T06:46:05.373Z,0.1
2016-08-11T06:47:05.921Z,0.6
2016-08-11T06:48:06.443Z,0.8
2016-08-11T06:49:07.136Z,0.9
2016-08-11T06:50:07.625Z,0.0
2016-08-11T06:51:08.158Z,0.0
2016-08-11T06:52:08.682Z,0.0
2016-08-11T06:53:09.077Z,0.0
2016-08-11T06:55:10.129Z,0.0
2016-08-11T06:56:10.674Z,0.0
2016-08-11T06:57:11.190Z,0.0
2016-08-11T06:58:11.729Z,0.0
2016-08-11T06:59:12.272Z,0.0
2016-08-11T07:00:12.945Z,0.0
2016-08-11T07:01:13.484Z,0.0
2016-08-11T07:02:13.858Z,0.0
2016-08-11T07:04:14.905Z,0.0
2016-08-11T07:05:15.449Z,0.0
2016-08-11T07:06:16.097Z,0.0
2016-08-11T07:07:16.631Z,0.0
2016-08-11T07:08:17.155Z,0.0
2016-08-11T07:09:17.571Z,0.0
2016-08-11T07:10:18.077Z,0.0
2016-08-11T07:11:18.746Z,0.0
2016-08-11T07:12:19.274Z,0.0
2016-08-11T07:13:19.802Z,0.0
2016-08-11T07:15:20.710Z,0.0
2016-08-11T07:16:21.243Z,0.0
2016-08-11T07:17:21.789Z,0.0
2016-08-11T07:18:22.340Z,0.0
2016-08-11T07:19:22.983Z,0.1
2016-08-11T07:20:23.367Z,0.0
2016-08-11T07:21:23.896Z,0.0
2016-08-11T07:22:24.432Z,0.0
2016-08-11T07:23:24.975Z,0.0
2016-08-11T07:24:25.505Z,0.0
2016-08-11T07:25:26.015Z,0.0
2016-08-11T07:26:26.695Z,0.0
2016-08-11T07:27:27.057Z,0.0
2016-08-11T07:28:27.742Z,0.0
2016-08-11T07:30:28.671Z,0.0
2016-08-11T07:31:29.209Z,0.0
2016-08-11T07:32:29.732Z,0.0
2016-08-11T07:33:30.252Z,0.1
2016-08-11T07:34:30.785Z,0.0
2016-08-11T07:35:31.469Z,0.0
2016-08-11T07:36:31.848Z,0.0
2016-08-11T07:37:32.370Z,0.0
2016-08-11T07:38:33.045Z,0.0
2016-08-11T07:39:33.572Z,0.1
2016-08-11T07:40:33.957Z,0.0
2016-08-11T07:41:34.492Z,0.0
2016-08-11T07:42:35.026Z,0.0
2016-08-11T07:43:35.556Z,0.0
2016-08-11T07:44:36.098Z,0.0
2016-08-11T07:45:36.610Z,0.0
2016-08-11T07:46:37.132Z,0.0
2016-08-11T07:47:37.638Z,0.0
2016-08-11T07:48:38.319Z,0.0
2016-08-11T07:49:38.849Z,0.0
2016-08-11T07:50:39.377Z,0.0
2016-08-11T07:51:39.794Z,0.0
2016-08-11T07:52:40.293Z,0.0
2016-08-11T07:53:40.959Z,0.0
2016-08-11T07:54:41.353Z,0.0
2016-08-11T07:55:41.895Z,0.0
2016-08-11T07:56:42.409Z,0.0
2016-08-11T07:57:43.077Z,0.0
2016-08-11T07:58:43.473Z,0.0
2016-08-11T07:59:44.012Z,0.0
2016-08-11T08:00:44.512Z,0.0
2016-08-11T08:01:45.050Z,0.0
2016-08-11T08:02:45.597Z,0.0
2016-08-11T08:03:46.138Z,0.0
2016-08-11T08:04:46.682Z,0.0
2016-08-11T08:05:47.709Z,0.0
2016-08-11T09:24:29.037Z,1.5
2016-08-11T09:25:29.567Z,0.2
2016-08-11T09:26:30.144Z,0.6
2016-08-11T09:27:30.646Z,1.0
2016-08-11T09:28:31.193Z,0.6
2016-08-11T09:30:32.301Z,0.8
2016-08-11T09:31:32.795Z,0.8
2016-08-11T09:32:33.344Z,0.6
2016-08-11T09:33:33.874Z,0.3
2016-08-11T09:34:34.412Z,1.0
2016-08-11T09:35:34.948Z,0.1
2016-08-11T09:36:35.463Z,0.0
2016-08-11T09:37:36.000Z,0.1
2016-08-11T09:38:36.547Z,0.3
2016-08-11T09:39:37.101Z,0.0
2016-08-11T09:40:37.616Z,0.2
2016-08-11T09:41:38.188Z,0.2
2016-08-11T09:42:38.677Z,0.4
2016-08-11T09:43:39.358Z,0.0
2016-08-11T09:44:39.769Z,0.0
2016-08-11T09:45:40.315Z,0.2
2016-08-11T09:46:40.840Z,0.2
2016-08-11T09:47:41.364Z,0.2
2016-08-11T09:48:41.901Z,0.2
2016-08-11T09:49:42.439Z,0.2
2016-08-11T09:50:43.115Z,0.0
2016-08-11T09:51:43.504Z,0.0
2016-08-11T09:52:44.042Z,0.0
2016-08-11T09:53:44.586Z,1.0
2016-08-11T09:54:45.113Z,1.0
2016-08-11T09:55:45.665Z,0.4
2016-08-11T09:56:46.174Z,0.0
2016-08-11T09:57:46.754Z,1.3
2016-08-11T09:58:47.269Z,0.7
2016-08-11T09:59:47.796Z,0.9
2016-08-11T10:00:48.333Z,0.4
2016-08-11T10:01:48.881Z,0.7
2016-08-11T10:02:49.423Z,0.9
2016-08-11T10:03:50.097Z,1.0
2016-08-11T10:04:50.480Z,0.7
2016-08-11T10:05:51.024Z,0.2
2016-08-11T10:06:51.579Z,0.0
2016-08-11T10:07:52.095Z,0.5
2016-08-11T10:08:52.644Z,1.2
2016-08-11T10:09:53.183Z,1.3
2016-08-11T10:10:53.703Z,1.5
2016-08-11T10:11:54.250Z,0.3
2016-08-11T10:12:54.792Z,0.9
2016-08-11T10:13:55.342Z,1.1
2016-08-11T10:14:55.865Z,0.3
2016-08-11T10:15:56.520Z,0.4
2016-08-11T10:16:56.915Z,0.7
2016-08-11T10:17:57.453Z,0.0
2016-08-11T10:18:57.986Z,0.8
2016-08-11T10:19:58.526Z,0.7
2016-08-11T10:20:59.072Z,1.3
2016-08-11T10:21:59.583Z,0.8
2016-08-11T10:23:00.130Z,0.8
2016-08-11T10:24:00.702Z,0.1
2016-08-11T10:25:01.196Z,0.2
2016-08-11T10:26:01.727Z,0.5
2016-08-11T10:28:02.830Z,1.0
2016-08-11T10:29:03.331Z,0.7
2016-08-11T10:30:03.868Z,0.2
2016-08-11T10:31:04.405Z,0.2
2016-08-11T10:32:06.001Z,0.0
2016-08-11T10:33:05.630Z,0.0
2016-08-11T10:34:06.052Z,0.3
2016-08-11T10:35:06.574Z,0.4
2016-08-11T10:36:07.099Z,0.2
2016-08-11T10:37:07.613Z,0.9
2016-08-11T10:38:08.172Z,0.9
2016-08-11T10:39:08.703Z,0.4
2016-08-11T10:40:09.245Z,0.5
2016-08-11T10:41:09.802Z,0.0
2016-08-11T10:42:10.308Z,0.7
2016-08-11T10:43:10.840Z,0.3
2016-08-11T10:44:11.524Z,0.1
2016-08-11T10:45:11.923Z,0.8
2016-08-11T10:46:12.449Z,0.8
2016-08-11T10:47:13.010Z,0.6
2016-08-11T10:48:13.669Z,0.2
2016-08-11T10:49:14.068Z,0.2
2016-08-11T10:50:14.605Z,0.0
2016-08-11T10:51:15.142Z,0.6
2016-08-11T10:52:15.831Z,0.0
2016-08-11T10:53:16.219Z,0.7
2016-08-11T10:54:16.739Z,0.0
2016-08-11T10:55:17.276Z,1.3
2016-08-11T10:56:17.822Z,0.4
2016-08-11T10:57:18.371Z,0.5
2016-08-11T10:58:18.934Z,1.1
2016-08-11T10:59:19.441Z,0.9
2016-08-11T11:00:19.967Z,0.4
2016-08-11T11:01:20.498Z,0.8
2016-08-11T11:02:21.072Z,1.3
2016-08-11T11:03:21.569Z,1.1
2016-08-11T11:04:22.093Z,1.7
2016-08-11T11:05:22.644Z,1.6
2016-08-11T11:06:23.178Z,2.0
2016-08-11T11:07:23.733Z,0.3
2016-08-11T11:08:24.238Z,0.0
2016-08-11T11:09:24.778Z,0.0
2016-08-11T11:10:25.318Z,0.1
2016-08-11T11:11:25.889Z,0.0
2016-08-11T11:12:26.525Z,1.4
2016-08-11T11:13:26.926Z,1.6
2016-08-11T11:14:27.453Z,0.0
2016-08-11T11:15:28.009Z,0.1
2016-08-11T11:16:28.540Z,0.1
2016-08-11T11:17:29.081Z,0.1
2016-08-11T11:18:29.612Z,0.0
2016-08-11T11:19:30.155Z,0.2
2016-08-11T11:20:30.829Z,1.6
2016-08-11T11:21:31.227Z,1.3
2016-08-11T11:22:31.776Z,1.2
2016-08-11T11:23:32.305Z,1.5
2016-08-11T11:24:32.852Z,0.6
2016-08-11T11:25:33.371Z,1.0
2016-08-11T11:26:33.901Z,1.2
2016-08-11T11:27:34.441Z,1.8
2016-08-11T11:28:34.986Z,1.5
2016-08-11T11:29:35.524Z,0.8
2016-08-11T11:30:36.190Z,1.0
2016-08-11T11:31:36.592Z,1.0
2016-08-11T11:32:37.153Z,1.4
2016-08-11T11:33:37.662Z,1.3
2016-08-11T11:34:38.196Z,1.0
2016-08-11T11:35:38.728Z,1.2
2016-08-11T11:36:39.410Z,1.0
2016-08-11T11:37:39.802Z,0.7
2016-08-11T11:38:40.343Z,1.5
2016-08-11T11:39:40.890Z,1.5
2016-08-11T11:40:41.407Z,0.9
2016-08-11T11:41:41.977Z,1.5
2016-08-11T11:42:42.477Z,2.1
2016-08-11T11:43:43.075Z,1.8
2016-08-11T11:44:43.552Z,1.2
2016-08-11T11:45:44.097Z,1.5
2016-08-11T11:46:44.654Z,1.0
2016-08-11T11:47:45.169Z,1.5
2016-08-11T11:48:45.702Z,0.6
2016-08-11T11:49:46.250Z,0.2
2016-08-11T11:50:46.777Z,1.5
2016-08-11T11:51:47.319Z,1.1
2016-08-11T11:52:47.861Z,0.5
2016-08-11T11:53:48.406Z,0.4
2016-08-11T11:54:48.937Z,1.0
2016-08-11T11:55:49.489Z,0.7
2016-08-11T11:56:50.144Z,0.2
2016-08-11T11:57:50.554Z,0.0
2016-08-11T11:58:51.214Z,0.3
2016-08-11T11:59:51.620Z,1.0
2016-08-11T12:00:52.149Z,0.9
2016-08-11T12:01:52.692Z,1.4
2016-08-11T12:02:53.244Z,1.7
2016-08-11T12:03:53.762Z,1.0
2016-08-11T12:04:54.288Z,0.5
2016-08-11T12:05:54.837Z,0.4
2016-08-11T12:06:55.360Z,0.0
2016-08-11T12:07:55.895Z,0.3
2016-08-11T12:08:56.424Z,0.6
2016-08-11T12:09:56.957Z,0.6
2016-08-11T12:10:57.502Z,0.7
2016-08-11T12:11:58.034Z,0.4
2016-08-11T12:12:58.556Z,1.1
2016-08-11T12:13:59.108Z,0.6
2016-08-11T12:14:59.632Z,0.4
2016-08-11T12:16:00.173Z,0.6
2016-08-11T12:17:00.848Z,0.4
2016-08-11T12:18:01.249Z,2.1
2016-08-11T12:19:01.784Z,2.2
2016-08-11T12:20:02.323Z,0.9
2016-08-11T12:21:02.881Z,1.1
2016-08-11T12:22:03.394Z,0.5
2016-08-11T12:23:03.924Z,1.1
2016-08-11T12:24:04.476Z,0.5
2016-08-11T12:25:05.008Z,0.4
2016-08-11T12:26:05.527Z,1.9
2016-08-11T12:27:06.094Z,0.6
2016-08-11T12:28:06.600Z,0.6
2016-08-11T12:29:07.281Z,0.0
2016-08-11T12:30:07.671Z,0.1
2016-08-11T12:31:08.212Z,1.2
2016-08-11T12:32:08.767Z,0.8
2016-08-11T12:33:09.299Z,0.9
2016-08-11T12:34:09.835Z,1.0
2016-08-11T12:35:10.376Z,0.8
2016-08-11T12:36:10.904Z,0.7
2016-08-11T12:37:11.454Z,0.6
2016-08-11T12:38:11.978Z,0.5
2016-08-11T12:39:12.534Z,0.6
2016-08-11T12:40:13.047Z,0.8
2016-08-11T12:41:13.590Z,0.7
2016-08-11T12:42:14.115Z,0.6
2016-08-11T12:43:14.657Z,1.0
2016-08-11T12:44:15.205Z,0.7
2016-08-11T12:46:16.276Z,0.3
2016-08-11T12:47:16.789Z,0.7
2016-08-11T12:48:17.334Z,1.2
2016-08-11T12:49:17.871Z,0.2
2016-08-11T12:50:18.393Z,0.0
2016-08-11T12:51:19.078Z,0.9
2016-08-11T12:52:19.477Z,0.7
2016-08-11T12:53:20.032Z,1.3
2016-08-11T12:54:20.548Z,1.3
2016-08-11T12:55:21.089Z,2.0
2016-08-11T12:56:21.619Z,1.1
2016-08-11T12:57:22.150Z,1.8
2016-08-11T12:58:22.699Z,0.7
2016-08-11T12:59:23.212Z,1.3
2016-08-11T13:01:24.425Z,0.8
2016-08-11T13:02:24.828Z,1.5
2016-08-11T13:03:25.362Z,1.0
2016-08-11T13:04:25.905Z,1.5
2016-08-11T13:05:26.423Z,1.7
2016-08-11T13:06:26.967Z,0.5
2016-08-11T13:07:27.505Z,1.4
2016-08-11T13:08:28.037Z,0.7
2016-08-11T13:09:28.586Z,0.7
2016-08-11T13:10:29.132Z,0.6
2016-08-11T13:11:29.657Z,0.7
2016-08-11T13:12:30.193Z,0.9
2016-08-11T13:13:30.721Z,0.9
2016-08-11T13:14:31.263Z,0.8
2016-08-11T13:15:31.790Z,0.4
2016-08-11T13:16:32.340Z,0.3
2016-08-11T13:17:32.865Z,0.3
2016-08-11T13:18:33.410Z,0.3
2016-08-11T13:19:33.931Z,0.6
2016-08-11T13:20:34.486Z,0.9
2016-08-11T13:21:35.013Z,1.0
2016-08-11T13:22:35.548Z,1.3
2016-08-11T13:23:36.095Z,1.1
2016-08-11T13:24:39.512Z,2.3
2016-08-11T13:25:37.146Z,1.6
2016-08-11T13:26:37.692Z,1.5
2016-08-11T13:27:38.235Z,0.8
2016-08-11T13:28:38.766Z,0.4
2016-08-11T13:29:39.429Z,0.4
2016-08-11T13:30:39.824Z,1.2
2016-08-11T13:31:40.358Z,0.7
2016-08-11T13:32:40.888Z,1.8
2016-08-11T13:33:41.443Z,1.9
2016-08-11T13:34:41.979Z,1.2
2016-08-11T13:35:42.510Z,1.3
2016-08-11T13:36:43.048Z,1.3
2016-08-11T13:37:43.594Z,2.6
2016-08-11T13:38:44.112Z,1.4
2016-08-11T13:39:44.646Z,2.6
2016-08-11T13:40:45.190Z,3.9
2016-08-11T13:41:45.730Z,2.3
2016-08-11T13:42:46.279Z,1.1
2016-08-11T13:43:46.817Z,1.0
2016-08-11T13:44:47.357Z,1.3
2016-08-11T13:45:47.906Z,1.8
2016-08-11T13:46:48.451Z,1.4
2016-08-11T13:47:48.999Z,1.3
2016-08-11T13:48:49.543Z,1.4
2016-08-11T13:49:50.111Z,1.5
2016-08-11T13:51:51.213Z,2.0
2016-08-11T13:52:51.715Z,2.0
2016-08-11T13:53:52.261Z,1.3
2016-08-11T13:54:52.802Z,1.8
2016-08-11T13:55:53.359Z,1.0
2016-08-11T13:56:53.893Z,1.0
2016-08-11T13:57:54.438Z,0.8
2016-08-11T13:58:54.980Z,1.6
2016-08-11T13:59:55.519Z,2.1
2016-08-11T14:00:56.070Z,1.4
2016-08-11T14:01:56.610Z,1.3
2016-08-11T14:02:57.150Z,1.9
2016-08-11T14:03:57.697Z,1.3
2016-08-11T14:04:58.262Z,1.3
2016-08-11T14:05:58.766Z,0.8
2016-08-11T14:06:59.293Z,1.0
2016-08-11T14:07:59.845Z,0.8
2016-08-11T14:09:00.383Z,0.6
2016-08-11T14:10:00.922Z,0.8
2016-08-11T14:11:01.472Z,0.3
2016-08-11T14:12:02.029Z,0.3
2016-08-11T14:13:02.551Z,0.5
2016-08-11T14:14:03.099Z,0.5
2016-08-11T14:15:03.785Z,0.8
2016-08-11T14:16:04.182Z,1.2
2016-08-11T14:17:04.720Z,2.5
2016-08-11T14:18:05.268Z,1.6
2016-08-11T14:19:05.820Z,1.9
2016-08-11T14:34:13.323Z,2.0
2016-08-11T14:40:16.487Z,1.1
2016-08-11T14:46:19.527Z,1.1
2016-08-11T14:52:22.802Z,0.9
2016-08-11T14:53:27.658Z,0.6
2016-08-11T14:54:28.488Z,1.8
2016-08-11T14:55:29.021Z,1.3
2016-08-11T14:56:29.273Z,2.1
2016-08-11T14:57:29.773Z,2.2
2016-08-11T14:58:30.303Z,1.3
2016-08-11T14:59:31.156Z,1.0
2016-08-11T15:00:31.400Z,0.7
2016-08-11T15:10:36.690Z,0.9
2016-08-11T15:11:37.239Z,2.8
2016-08-11T15:12:37.747Z,2.8
2016-08-11T15:13:38.415Z,1.0
2016-08-11T15:14:38.959Z,1.5
2016-08-11T15:15:39.606Z,1.1
2016-08-11T15:17:40.389Z,1.6
2016-08-11T15:18:41.064Z,1.9
2016-08-11T15:19:41.564Z,1.6
2016-08-11T15:20:41.962Z,1.4
2016-08-11T15:21:42.797Z,1.9
2016-08-11T15:22:43.011Z,1.3
2016-08-11T15:23:43.709Z,2.1
2016-08-11T15:24:44.088Z,1.3
2016-08-11T15:25:44.582Z,0.5
2016-08-11T15:26:45.258Z,0.5
2016-08-11T15:27:45.939Z,0.4
2016-08-11T15:28:46.320Z,1.5
2016-08-11T15:29:46.692Z,1.1
2016-08-11T15:30:47.239Z,0.7
2016-08-11T15:32:48.291Z,0.8
2016-08-11T15:33:48.800Z,0.7
2016-08-11T15:34:49.488Z,0.8
2016-08-11T15:35:50.009Z,0.5
2016-08-11T15:36:50.396Z,0.6
2016-08-11T15:37:51.226Z,0.4
2016-08-11T15:38:51.628Z,1.2
2016-08-11T15:39:51.983Z,1.5
2016-08-11T15:40:52.543Z,2.2
2016-08-11T15:41:53.342Z,2.0
2016-08-11T15:42:53.750Z,2.6
2016-08-11T15:43:54.100Z,2.7
2016-08-11T15:44:54.799Z,2.7
2016-08-11T15:46:55.828Z,3.9
2016-08-11T15:47:56.223Z,2.8
2016-08-11T15:48:56.888Z,1.9
2016-08-11T15:49:57.407Z,1.9
2016-08-11T15:50:57.942Z,1.5
2016-08-11T15:51:58.491Z,1.4
2016-08-11T15:52:59.004Z,0.9
2016-08-11T15:53:59.532Z,1.2
2016-08-11T15:55:00.058Z,0.7
2016-08-11T15:56:00.443Z,1.2
2016-08-11T15:57:00.948Z,1.4
2016-08-11T15:58:01.795Z,0.7
2016-08-11T15:59:02.071Z,0.7
2016-08-11T16:00:02.703Z,1.6
2016-08-11T16:02:03.733Z,1.3
2016-08-11T16:03:04.115Z,2.7
2016-08-11T16:04:04.666Z,1.9
2016-08-11T16:05:05.194Z,2.3
2016-08-11T16:06:05.698Z,1.4
2016-08-11T16:07:06.374Z,2.4
2016-08-11T16:08:06.897Z,1.9
2016-08-11T16:09:07.276Z,1.5
2016-08-11T16:10:07.974Z,2.0
2016-08-11T16:11:08.350Z,1.5
2016-08-11T16:12:09.047Z,1.5
2016-08-11T16:13:09.461Z,1.3
2016-08-11T16:14:09.950Z,1.0
2016-08-11T16:15:10.605Z,0.3
2016-08-11T16:16:10.995Z,0.6
2016-08-11T16:17:11.546Z,1.2
2016-08-11T16:18:12.082Z,1.6
2016-08-11T16:19:12.633Z,0.9
2016-08-11T16:20:13.316Z,0.6
2016-08-11T16:21:13.725Z,1.5
2016-08-11T16:22:14.403Z,1.6
2016-08-11T16:23:14.824Z,1.2
2016-08-11T16:24:15.335Z,0.9
2016-08-11T16:25:15.889Z,0.7
2016-08-11T16:26:16.421Z,0.5
2016-08-11T16:27:16.956Z,0.7
2016-08-11T16:28:17.502Z,0.7
2016-08-11T16:29:18.051Z,1.7
2016-08-11T16:30:18.587Z,1.8
2016-08-11T16:31:19.137Z,1.0
2016-08-11T16:32:21.317Z,0.6
2016-08-11T16:33:20.220Z,0.5
2016-08-11T16:34:20.756Z,0.5
2016-08-11T16:35:21.449Z,0.6
2016-08-11T16:36:21.840Z,0.2
2016-08-11T16:37:22.386Z,0.5
2016-08-11T16:38:22.948Z,0.3
2016-08-11T16:39:23.481Z,0.1
2016-08-11T16:40:24.009Z,0.6
2016-08-11T16:41:24.551Z,0.6
2016-08-11T16:42:25.105Z,0.8
2016-08-11T16:43:25.634Z,0.6
2016-08-11T16:44:26.325Z,0.4
2016-08-11T16:45:27.024Z,0.2
2016-08-11T16:46:27.286Z,0.0
2016-08-11T16:47:27.811Z,0.0
2016-08-11T16:48:28.353Z,0.1
2016-08-11T16:49:28.894Z,0.1
2016-08-11T16:50:29.440Z,0.1
2016-08-11T16:51:29.992Z,0.0
2016-08-11T16:52:30.528Z,0.0
2016-08-11T16:53:31.075Z,0.0
2016-08-11T16:54:31.612Z,0.5
2016-08-11T16:55:32.160Z,0.7
2016-08-11T16:56:32.691Z,0.0
2016-08-11T16:57:33.239Z,0.1
2016-08-11T16:58:33.773Z,0.0
2016-08-11T16:59:34.467Z,0.0
2016-08-11T17:00:34.889Z,0.0
2016-08-11T17:01:35.548Z,0.0
2016-08-11T17:02:35.938Z,0.1
2016-08-11T17:03:36.478Z,0.0
2016-08-11T17:04:37.021Z,0.2
2016-08-11T17:05:37.559Z,0.0
2016-08-11T17:06:38.103Z,0.2
2016-08-11T17:07:38.798Z,0.1
2016-08-11T17:08:39.191Z,0.9
2016-08-11T17:09:39.743Z,0.1
2016-08-11T17:10:40.309Z,0.1
2016-08-11T17:11:40.816Z,0.1
2016-08-11T17:12:41.358Z,0.0
2016-08-11T17:13:41.898Z,0.0
2016-08-11T17:14:42.443Z,0.0
2016-08-11T17:15:43.148Z,0.0
2016-08-11T17:16:43.557Z,0.0
2016-08-11T17:17:44.076Z,0.0
2016-08-11T17:18:44.772Z,0.0
2016-08-11T17:19:45.299Z,0.0
2016-08-11T17:20:45.692Z,0.0
2016-08-11T17:21:46.238Z,0.2
2016-08-11T17:22:46.775Z,0.3
2016-08-11T17:23:47.316Z,0.1
2016-08-11T17:24:48.009Z,0.0
2016-08-11T17:25:48.401Z,0.0
2016-08-11T17:26:48.949Z,0.4
2016-08-11T17:27:49.646Z,0.0
2016-08-11T17:28:50.044Z,0.2
2016-08-11T17:29:50.607Z,0.0
2016-08-11T17:30:51.141Z,0.0
2016-08-11T17:31:51.672Z,0.0
2016-08-11T17:32:52.215Z,0.0
2016-08-11T17:33:52.761Z,0.0
2016-08-11T17:34:53.297Z,0.0
2016-08-11T17:35:53.842Z,0.0
2016-08-11T17:36:54.408Z,0.0
2016-08-11T17:37:54.929Z,0.0
2016-08-11T17:38:55.474Z,0.0
2016-08-11T17:39:56.002Z,0.0
2016-08-11T17:40:56.553Z,0.0
2016-08-11T17:41:57.234Z,0.0
2016-08-11T17:42:57.626Z,0.0
2016-08-11T17:43:58.168Z,0.3
2016-08-11T17:44:58.713Z,0.6
2016-08-11T17:45:59.254Z,0.3
2016-08-11T17:46:59.797Z,0.7
2016-08-11T17:48:00.490Z,0.6
2016-08-11T17:49:00.882Z,0.0
2016-08-11T17:50:01.440Z,0.0
2016-08-11T17:51:01.964Z,0.1
2016-08-11T17:52:02.513Z,0.2
2016-08-11T17:53:03.046Z,0.1
2016-08-11T17:54:03.587Z,0.3
2016-08-11T17:55:04.128Z,0.0
2016-08-11T17:56:04.665Z,0.0
2016-08-11T17:57:05.210Z,0.1
2016-08-11T17:58:05.786Z,0.0
2016-08-11T17:59:06.294Z,0.0
2016-08-11T18:00:06.986Z,0.0
2016-08-11T18:01:07.379Z,0.2
2016-08-11T18:03:08.459Z,2.3
2016-08-11T18:04:09.015Z,0.6
2016-08-11T18:05:09.694Z,0.8
2016-08-11T18:06:10.097Z,0.4
2016-08-11T18:07:10.663Z,0.7
2016-08-11T18:08:11.185Z,0.6
2016-08-11T18:09:11.726Z,0.5
2016-08-11T18:10:12.277Z,0.4
2016-08-11T18:11:12.809Z,0.4
2016-08-11T18:12:13.352Z,0.4
2016-08-11T18:13:13.898Z,0.7
2016-08-11T18:14:14.593Z,1.9
2016-08-11T18:15:14.981Z,1.9
2016-08-11T18:16:15.540Z,1.8
2016-08-11T18:18:16.604Z,1.8
2016-08-11T18:19:17.147Z,0.9
2016-08-11T18:20:17.692Z,1.1
2016-08-11T18:21:18.252Z,2.1
2016-08-11T18:22:18.782Z,1.9
2016-08-11T18:24:20.146Z,2.8
2016-08-11T18:25:20.390Z,2.3
2016-08-11T18:26:20.903Z,2.0
2016-08-11T18:27:21.429Z,1.5
2016-08-11T18:28:21.969Z,1.5
2016-08-11T18:29:22.516Z,1.1
2016-08-11T18:30:23.071Z,1.8
2016-08-11T18:32:19.807Z,0.7
2016-08-11T18:33:24.686Z,0.7
2016-08-11T18:34:25.235Z,0.6
2016-08-11T18:35:25.795Z,0.8
2016-08-11T18:36:26.320Z,2.1
2016-08-11T18:37:45.928Z,0.80
2016-08-11T18:38:46.626Z,0.70
2016-08-11T18:39:47.129Z,1.40
2016-08-11T18:40:47.677Z,0.60
2016-08-11T18:41:48.194Z,0.50
2016-08-11T18:42:48.606Z,0.30
2016-08-11T18:43:49.273Z,0.10
2016-08-11T18:44:49.655Z,0.40
2016-08-11T18:45:50.191Z,0.20
2016-08-11T18:46:50.754Z,0.40
2016-08-11T18:47:51.281Z,0.20
2016-08-11T18:48:51.818Z,0.30
2016-08-11T18:49:52.364Z,1.20
2016-08-11T18:50:52.902Z,0.70
2016-08-11T18:51:53.446Z,0.70
2016-08-11T18:52:53.983Z,1.10
2016-08-11T18:53:54.523Z,0.60
2016-08-11T18:54:55.064Z,0.70
2016-08-11T18:55:55.608Z,0.80
2016-08-11T18:56:56.145Z,0.80
2016-08-11T18:57:56.685Z,1.20
2016-08-11T18:58:57.245Z,1.10
2016-08-11T18:59:57.768Z,0.80
2016-08-11T19:00:58.313Z,1.40
2016-08-11T19:01:58.858Z,1.40
2016-08-11T19:02:59.542Z,0.60
2016-08-11T19:03:59.942Z,0.60
2016-08-11T19:05:00.481Z,0.90
2016-08-11T19:06:01.033Z,0.60
2016-08-11T19:07:01.560Z,0.40
2016-08-11T19:08:02.098Z,1.00
2016-08-11T19:09:02.650Z,1.30
2016-08-11T19:10:03.195Z,1.00
2016-08-11T19:11:03.724Z,1.00
2016-08-11T19:12:04.264Z,0.40
2016-08-11T19:13:04.953Z,0.60
2016-08-11T19:14:05.347Z,1.00
2016-08-11T19:15:05.891Z,1.00
2016-08-11T19:16:06.432Z,1.40
2016-08-11T19:17:06.978Z,1.00
2016-08-11T19:18:07.527Z,0.40
2016-08-11T19:19:08.060Z,0.50
2016-08-11T19:20:08.613Z,0.50
2016-08-11T19:21:09.157Z,0.20
2016-08-11T19:22:09.696Z,0.20
2016-08-11T19:23:10.234Z,0.50
2016-08-11T19:24:10.775Z,0.40
2016-08-11T19:25:11.318Z,0.60
2016-08-11T19:26:11.853Z,0.20
2016-08-11T19:27:12.402Z,0.10
2016-08-11T19:28:12.937Z,0.10
2016-08-11T19:29:13.483Z,0.20
2016-08-11T19:30:14.048Z,0.00
2016-08-11T19:31:14.567Z,0.20
2016-08-11T19:32:15.106Z,0.00
2016-08-11T19:33:15.655Z,0.00
2016-08-11T19:34:16.221Z,0.00
2016-08-11T19:35:16.897Z,0.40
2016-08-11T19:36:17.296Z,0.20
2016-08-11T19:37:17.834Z,0.10
2016-08-11T19:38:18.528Z,0.20
2016-08-11T19:39:18.921Z,0.10
2016-08-11T19:40:19.455Z,0.20
2016-08-11T19:41:20.003Z,0.40
2016-08-11T19:42:20.553Z,0.30
2016-08-11T19:43:21.086Z,0.60
2016-08-11T19:44:21.655Z,0.70
2016-08-11T19:45:22.174Z,0.30
2016-08-11T19:46:22.722Z,0.30
2016-08-11T19:47:23.257Z,0.20
2016-08-11T19:48:23.956Z,0.30
2016-08-11T19:49:24.342Z,0.40
2016-08-11T19:50:25.630Z,0.70
2016-08-11T19:51:25.421Z,1.10
2016-08-11T19:52:25.959Z,0.40
2016-08-11T19:53:26.507Z,0.10
2016-08-11T19:54:27.048Z,0.20
2016-08-11T19:55:27.596Z,0.20
2016-08-11T19:56:28.147Z,0.20
2016-08-11T19:57:28.690Z,0.50
2016-08-11T19:58:29.231Z,0.20
2016-08-11T19:59:29.777Z,0.00
2016-08-11T20:00:30.324Z,0.20
2016-08-11T20:01:30.863Z,0.30
2016-08-11T20:03:31.948Z,0.10
2016-08-11T20:04:32.492Z,0.20
2016-08-11T20:05:33.040Z,0.10
2016-08-11T20:06:33.582Z,0.10
2016-08-11T20:07:34.122Z,0.60
2016-08-11T20:08:34.667Z,1.00
2016-08-11T20:09:35.207Z,0.90
2016-08-11T20:10:35.748Z,0.40
2016-08-11T20:11:36.294Z,0.30
2016-08-11T20:12:36.834Z,0.30
2016-08-11T20:13:37.382Z,0.30
2016-08-11T20:14:37.927Z,0.10
2016-08-11T20:15:38.464Z,0.40
2016-08-11T20:16:39.003Z,0.00
2016-08-11T20:18:40.271Z,0.50
2016-08-11T20:19:40.635Z,0.30
2016-08-11T20:20:41.188Z,0.70
2016-08-11T20:21:41.869Z,0.30
2016-08-11T20:22:42.263Z,0.40
2016-08-11T20:23:42.807Z,0.40
2016-08-11T20:24:43.347Z,0.40
2016-08-11T20:25:44.038Z,0.40
2016-08-11T20:26:44.432Z,0.00
2016-08-11T20:27:44.977Z,0.00
2016-08-11T20:28:45.531Z,0.40
2016-08-11T20:29:46.065Z,0.10
2016-08-11T20:30:46.623Z,0.10
2016-08-11T20:31:47.177Z,0.00
2016-08-11T20:33:48.404Z,0.20
2016-08-11T20:34:48.821Z,0.20
2016-08-11T20:35:49.340Z,0.10
2016-08-11T20:36:49.878Z,0.10
2016-08-11T20:37:50.429Z,0.20
2016-08-11T20:38:50.956Z,0.10
2016-08-11T20:39:51.502Z,0.00
2016-08-11T20:40:52.046Z,0.20
2016-08-11T20:41:52.583Z,0.60
2016-08-11T20:42:53.129Z,0.40
2016-08-11T20:43:53.666Z,0.20
2016-08-11T20:44:54.202Z,0.10
2016-08-11T20:45:54.750Z,0.30
2016-08-11T20:46:55.441Z,0.20
2016-08-11T20:48:56.380Z,0.50
2016-08-11T20:49:57.061Z,0.60
2016-08-11T20:50:57.461Z,0.30
2016-08-11T20:51:57.999Z,0.60
2016-08-11T20:52:58.543Z,0.80
2016-08-11T20:53:59.084Z,0.20
2016-08-11T20:54:59.622Z,0.30
2016-08-11T20:56:00.169Z,0.20
2016-08-11T20:57:00.706Z,0.10
2016-08-11T20:58:01.276Z,0.10
2016-08-11T20:59:01.790Z,0.10
2016-08-11T21:00:02.358Z,0.00
2016-08-11T21:01:02.878Z,0.00
2016-08-11T21:02:03.438Z,0.00
2016-08-11T21:04:04.500Z,0.80
2016-08-11T21:05:05.191Z,0.60
2016-08-11T21:06:05.585Z,0.70
2016-08-11T21:07:06.129Z,0.70
2016-08-11T21:08:06.666Z,0.60
2016-08-11T21:09:07.208Z,0.90
2016-08-11T21:10:07.752Z,0.70
2016-08-11T21:11:08.292Z,0.90
2016-08-11T21:12:08.845Z,0.50
2016-08-11T21:13:09.383Z,0.70
2016-08-11T21:14:09.934Z,0.30
2016-08-11T21:15:10.476Z,0.20
2016-08-11T21:16:11.018Z,0.50
2016-08-11T21:17:11.556Z,0.50
2016-08-11T21:19:12.640Z,0.50
2016-08-11T21:20:13.330Z,0.40
2016-08-11T21:21:13.725Z,0.70
2016-08-11T21:22:14.294Z,0.30
2016-08-11T21:23:14.807Z,0.20
2016-08-11T21:24:15.494Z,0.30
2016-08-11T21:25:15.886Z,0.10
2016-08-11T21:26:16.430Z,0.20
2016-08-11T21:27:16.976Z,0.50
2016-08-11T21:28:17.530Z,0.70
2016-08-11T21:29:18.053Z,0.90
2016-08-11T21:30:18.742Z,0.40
2016-08-11T21:31:19.145Z,0.40
2016-08-11T21:33:20.222Z,0.70
2016-08-11T21:34:20.765Z,0.60
2016-08-11T21:35:21.314Z,1.20
2016-08-11T21:36:21.851Z,0.40
2016-08-11T21:37:22.400Z,0.70
2016-08-11T21:38:22.934Z,0.30
2016-08-11T21:39:23.490Z,0.50
2016-08-11T21:40:24.018Z,0.50
2016-08-11T21:41:24.578Z,0.40
2016-08-11T21:42:25.107Z,0.50
2016-08-11T21:43:25.653Z,0.70
2016-08-11T21:44:26.187Z,0.40
2016-08-11T21:45:26.725Z,0.10
2016-08-11T21:46:27.573Z,0.60
2016-08-11T21:48:28.361Z,1.10
2016-08-11T21:49:28.943Z,1.00
2016-08-11T21:50:29.453Z,0.70
2016-08-11T21:51:30.003Z,0.40
2016-08-11T21:52:30.689Z,1.00
2016-08-11T21:53:31.078Z,0.70
2016-08-11T21:54:31.627Z,0.40
2016-08-11T21:55:32.164Z,0.40
2016-08-11T21:56:32.710Z,0.60
2016-08-11T21:57:33.248Z,0.80
2016-08-11T21:58:33.794Z,0.40
2016-08-11T21:59:34.345Z,0.60
2016-08-11T22:00:34.877Z,0.10
2016-08-11T22:01:35.422Z,0.80
2016-08-11T22:02:35.959Z,1.00
2016-08-11T22:03:36.498Z,0.70